sensor_id;sensor_type;location;lat;lon;timestamp;pressure;altitude;pressure_sealevel;temperature;humidity
40650;BME280;26342;42.826;23.992;2022-07-29T00:02:11;95443.47;;;20.25;96.27
40650;BME280;26342;42.826;23.992;2022-07-29T00:04:37;95444.06;;;20.14;97.31
40650;BME280;26342;42.826;23.992;2022-07-29T00:07:03;95444.50;;;19.98;99.04
40650;BME280;26342;42.826;23.992;2022-07-29T00:09:29;95436.19;;;19.86;99.74
40650;BME280;26342;42.826;23.992;2022-07-29T00:11:57;95430.31;;;19.84;100.00
40650;BME280;26342;42.826;23.992;2022-07-29T00:14:23;95447.13;;;19.72;100.00
40650;BME280;26342;42.826;23.992;2022-07-29T00:16:49;95432.78;;;19.72;100.00
40650;BME280;26342;42.826;23.992;2022-07-29T00:19:14;95443.53;;;19.86;100.00
40650;BME280;26342;42.826;23.992;2022-07-29T00:21:39;95436.50;;;19.85;100.00
40650;BME280;26342;42.826;23.992;2022-07-29T00:24:05;95431.09;;;19.85;100.00
40650;BME280;26342;42.826;23.992;2022-07-29T00:26:31;95430.13;;;19.80;100.00
40650;BME280;26342;42.826;23.992;2022-07-29T00:28:59;95425.00;;;19.70;100.00
40650;BME280;26342;42.826;23.992;2022-07-29T00:31:24;95425.94;;;19.74;100.00
40650;BME280;26342;42.826;23.992;2022-07-29T00:33:50;95422.47;;;19.83;98.97
40650;BME280;26342;42.826;23.992;2022-07-29T00:36:15;95419.94;;;19.86;98.66
40650;BME280;26342;42.826;23.992;2022-07-29T00:38:41;95424.28;;;19.96;96.93
40650;BME280;26342;42.826;23.992;2022-07-29T00:41:11;95415.81;;;19.97;96.67
40650;BME280;26342;42.826;23.992;2022-07-29T00:43:37;95409.94;;;19.95;96.41
40650;BME280;26342;42.826;23.992;2022-07-29T00:46:03;95424.44;;;19.99;96.09
40650;BME280;26342;42.826;23.992;2022-07-29T00:48:28;95421.09;;;20.02;95.68
40650;BME280;26342;42.826;23.992;2022-07-29T00:50:54;95419.66;;;20.05;95.87
40650;BME280;26342;42.826;23.992;2022-07-29T00:53:21;95416.66;;;20.06;96.38
40650;BME280;26342;42.826;23.992;2022-07-29T00:55:46;95426.69;;;20.06;96.33
40650;BME280;26342;42.826;23.992;2022-07-29T00:58:12;95427.19;;;20.08;96.54
40650;BME280;26342;42.826;23.992;2022-07-29T01:00:39;95428.59;;;20.14;96.10
40650;BME280;26342;42.826;23.992;2022-07-29T01:03:06;95420.19;;;20.16;95.61
40650;BME280;26342;42.826;23.992;2022-07-29T01:05:32;95424.47;;;20.08;95.46
40650;BME280;26342;42.826;23.992;2022-07-29T01:08:00;95430.34;;;20.01;95.84
40650;BME280;26342;42.826;23.992;2022-07-29T01:10:27;95435.91;;;20.05;97.59
40650;BME280;26342;42.826;23.992;2022-07-29T01:12:55;95427.19;;;20.08;97.63
40650;BME280;26342;42.826;23.992;2022-07-29T01:15:22;95432.91;;;20.06;98.38
40650;BME280;26342;42.826;23.992;2022-07-29T01:18:04;95434.00;;;20.05;97.81
40650;BME280;26342;42.826;23.992;2022-07-29T01:29:49;95440.53;;;19.96;98.22
40650;BME280;26342;42.826;23.992;2022-07-29T01:32:14;95436.84;;;19.92;98.92
40650;BME280;26342;42.826;23.992;2022-07-29T01:37:29;95425.19;;;19.83;97.90
40650;BME280;26342;42.826;23.992;2022-07-29T01:39:58;95422.31;;;19.79;97.76
40650;BME280;26342;42.826;23.992;2022-07-29T01:42:37;95425.81;;;19.79;98.06
40650;BME280;26342;42.826;23.992;2022-07-29T01:45:20;95429.97;;;19.77;98.67
40650;BME280;26342;42.826;23.992;2022-07-29T01:47:59;95427.22;;;19.68;99.15
40650;BME280;26342;42.826;23.992;2022-07-29T01:50:40;95430.22;;;19.67;99.53
40650;BME280;26342;42.826;23.992;2022-07-29T01:53:12;95429.56;;;19.61;99.63
40650;BME280;26342;42.826;23.992;2022-07-29T01:55:44;95433.22;;;19.57;100.00
40650;BME280;26342;42.826;23.992;2022-07-29T01:58:11;95444.16;;;19.51;100.00
40650;BME280;26342;42.826;23.992;2022-07-29T02:00:39;95423.72;;;19.37;100.00
40650;BME280;26342;42.826;23.992;2022-07-29T02:03:09;95431.38;;;19.43;100.00
40650;BME280;26342;42.826;23.992;2022-07-29T02:05:38;95431.19;;;19.40;100.00
40650;BME280;26342;42.826;23.992;2022-07-29T02:08:05;95434.53;;;19.37;100.00
40650;BME280;26342;42.826;23.992;2022-07-29T02:10:33;95432.75;;;19.32;100.00
40650;BME280;26342;42.826;23.992;2022-07-29T02:12:59;95431.59;;;19.24;100.00
40650;BME280;26342;42.826;23.992;2022-07-29T02:15:27;95433.97;;;19.26;100.00
40650;BME280;26342;42.826;23.992;2022-07-29T02:17:58;95431.72;;;19.19;100.00
40650;BME280;26342;42.826;23.992;2022-07-29T02:20:25;95440.34;;;19.21;100.00
40650;BME280;26342;42.826;23.992;2022-07-29T02:22:52;95436.53;;;19.22;100.00
40650;BME280;26342;42.826;23.992;2022-07-29T02:25:21;95439.03;;;19.19;100.00
40650;BME280;26342;42.826;23.992;2022-07-29T02:27:49;95441.56;;;19.15;100.00
40650;BME280;26342;42.826;23.992;2022-07-29T02:30:16;95442.00;;;19.09;100.00
40650;BME280;26342;42.826;23.992;2022-07-29T02:32:43;95443.09;;;19.08;100.00
40650;BME280;26342;42.826;23.992;2022-07-29T02:35:09;95446.25;;;19.01;100.00
40650;BME280;26342;42.826;23.992;2022-07-29T02:37:36;95443.16;;;18.94;100.00
40650;BME280;26342;42.826;23.992;2022-07-29T02:40:03;95448.09;;;18.92;100.00
40650;BME280;26342;42.826;23.992;2022-07-29T02:42:30;95455.03;;;18.84;100.00
40650;BME280;26342;42.826;23.992;2022-07-29T02:44:57;95455.34;;;18.83;100.00
40650;BME280;26342;42.826;23.992;2022-07-29T02:50:05;95455.16;;;18.79;100.00
40650;BME280;26342;42.826;23.992;2022-07-29T02:55:11;95449.25;;;18.77;100.00
40650;BME280;26342;42.826;23.992;2022-07-29T02:57:44;95454.50;;;18.74;100.00
40650;BME280;26342;42.826;23.992;2022-07-29T03:00:12;95443.28;;;18.66;100.00
40650;BME280;26342;42.826;23.992;2022-07-29T03:02:42;95450.66;;;18.75;100.00
40650;BME280;26342;42.826;23.992;2022-07-29T03:05:11;95453.97;;;18.72;100.00
40650;BME280;26342;42.826;23.992;2022-07-29T03:07:38;95450.88;;;18.64;100.00
40650;BME280;26342;42.826;23.992;2022-07-29T03:10:07;95445.03;;;18.49;100.00
40650;BME280;26342;42.826;23.992;2022-07-29T03:12:34;95451.81;;;18.46;100.00
40650;BME280;26342;42.826;23.992;2022-07-29T03:15:00;95448.44;;;18.40;100.00
40650;BME280;26342;42.826;23.992;2022-07-29T03:17:27;95444.66;;;18.41;100.00
40650;BME280;26342;42.826;23.992;2022-07-29T03:19:53;95446.97;;;18.34;100.00
40650;BME280;26342;42.826;23.992;2022-07-29T03:22:19;95446.75;;;18.31;100.00
40650;BME280;26342;42.826;23.992;2022-07-29T03:24:46;95450.25;;;18.31;100.00
40650;BME280;26342;42.826;23.992;2022-07-29T03:27:11;95447.69;;;18.26;100.00
40650;BME280;26342;42.826;23.992;2022-07-29T03:29:37;95446.75;;;18.31;100.00
40650;BME280;26342;42.826;23.992;2022-07-29T03:32:04;95441.75;;;18.24;100.00
40650;BME280;26342;42.826;23.992;2022-07-29T03:34:30;95444.47;;;18.24;100.00
40650;BME280;26342;42.826;23.992;2022-07-29T03:36:55;95455.56;;;18.23;100.00
40650;BME280;26342;42.826;23.992;2022-07-29T03:39:24;95449.47;;;18.31;100.00
40650;BME280;26342;42.826;23.992;2022-07-29T03:41:56;95453.47;;;18.33;100.00
40650;BME280;26342;42.826;23.992;2022-07-29T03:44:25;95439.16;;;18.33;100.00
40650;BME280;26342;42.826;23.992;2022-07-29T03:46:51;95449.44;;;18.45;100.00
40650;BME280;26342;42.826;23.992;2022-07-29T03:49:20;95448.72;;;18.53;100.00
40650;BME280;26342;42.826;23.992;2022-07-29T03:51:47;95442.09;;;18.59;100.00
40650;BME280;26342;42.826;23.992;2022-07-29T03:54:12;95449.66;;;18.71;100.00
40650;BME280;26342;42.826;23.992;2022-07-29T03:56:42;95445.13;;;18.80;100.00
40650;BME280;26342;42.826;23.992;2022-07-29T03:59:08;95444.22;;;18.84;100.00
40650;BME280;26342;42.826;23.992;2022-07-29T04:01:35;95446.19;;;18.92;100.00
40650;BME280;26342;42.826;23.992;2022-07-29T04:04:02;95443.16;;;18.94;100.00
40650;BME280;26342;42.826;23.992;2022-07-29T04:06:27;95441.47;;;18.98;99.71
40650;BME280;26342;42.826;23.992;2022-07-29T04:08:53;95444.53;;;19.05;100.00
40650;BME280;26342;42.826;23.992;2022-07-29T04:11:18;95440.88;;;19.10;100.00
40650;BME280;26342;42.826;23.992;2022-07-29T04:13:44;95438.22;;;19.18;100.00
40650;BME280;26342;42.826;23.992;2022-07-29T04:16:09;95431.91;;;19.23;100.00
40650;BME280;26342;42.826;23.992;2022-07-29T04:18:35;95434.03;;;19.35;100.00
40650;BME280;26342;42.826;23.992;2022-07-29T04:21:00;95441.69;;;19.41;100.00
40650;BME280;26342;42.826;23.992;2022-07-29T04:23:27;95440.94;;;19.49;100.00
40650;BME280;26342;42.826;23.992;2022-07-29T04:25:53;95450.06;;;19.53;100.00
40650;BME280;26342;42.826;23.992;2022-07-29T04:28:19;95446.13;;;19.60;100.00
40650;BME280;26342;42.826;23.992;2022-07-29T04:30:45;95448.09;;;19.68;99.50
40650;BME280;26342;42.826;23.992;2022-07-29T04:33:10;95443.94;;;19.70;98.89
40650;BME280;26342;42.826;23.992;2022-07-29T04:35:37;95427.69;;;19.70;98.99
40650;BME280;26342;42.826;23.992;2022-07-29T04:38:04;95446.84;;;19.83;98.36
40650;BME280;26342;42.826;23.992;2022-07-29T04:40:30;95442.25;;;19.83;98.22
40650;BME280;26342;42.826;23.992;2022-07-29T04:42:56;95448.13;;;19.85;97.44
40650;BME280;26342;42.826;23.992;2022-07-29T04:45:21;95450.22;;;19.88;97.57
40650;BME280;26342;42.826;23.992;2022-07-29T04:47:47;95438.56;;;19.79;97.43
40650;BME280;26342;42.826;23.992;2022-07-29T04:50:13;95448.63;;;19.87;96.22
40650;BME280;26342;42.826;23.992;2022-07-29T04:52:38;95456.09;;;19.90;95.76
40650;BME280;26342;42.826;23.992;2022-07-29T04:55:05;95450.69;;;19.90;95.75
40650;BME280;26342;42.826;23.992;2022-07-29T04:57:31;95448.50;;;19.92;95.01
40650;BME280;26342;42.826;23.992;2022-07-29T04:59:57;95451.53;;;19.99;95.57
40650;BME280;26342;42.826;23.992;2022-07-29T05:02:23;95452.81;;;20.02;96.18
40650;BME280;26342;42.826;23.992;2022-07-29T05:04:48;95451.56;;;20.08;96.17
40650;BME280;26342;42.826;23.992;2022-07-29T05:07:14;95457.00;;;20.17;95.94
40650;BME280;26342;42.826;23.992;2022-07-29T05:09:40;95460.38;;;20.31;95.80
40650;BME280;26342;42.826;23.992;2022-07-29T05:12:06;95455.13;;;20.43;95.95
40650;BME280;26342;42.826;23.992;2022-07-29T05:14:32;95456.75;;;20.61;95.00
40650;BME280;26342;42.826;23.992;2022-07-29T05:16:58;95463.00;;;20.62;94.84
40650;BME280;26342;42.826;23.992;2022-07-29T05:19:23;95460.28;;;20.71;94.32
40650;BME280;26342;42.826;23.992;2022-07-29T05:21:49;95455.66;;;20.80;94.10
40650;BME280;26342;42.826;23.992;2022-07-29T05:24:18;95455.81;;;20.92;93.58
40650;BME280;26342;42.826;23.992;2022-07-29T05:26:43;95451.34;;;21.05;91.90
40650;BME280;26342;42.826;23.992;2022-07-29T05:29:09;95460.09;;;21.19;91.10
40650;BME280;26342;42.826;23.992;2022-07-29T05:31:35;95451.31;;;21.31;89.78
40650;BME280;26342;42.826;23.992;2022-07-29T05:34:01;95449.53;;;21.43;88.85
40650;BME280;26342;42.826;23.992;2022-07-29T05:36:26;95461.31;;;21.65;90.08
40650;BME280;26342;42.826;23.992;2022-07-29T05:38:52;95460.44;;;21.82;90.80
40650;BME280;26342;42.826;23.992;2022-07-29T05:41:19;95463.75;;;21.87;88.03
40650;BME280;26342;42.826;23.992;2022-07-29T05:43:45;95462.91;;;22.04;88.28
40650;BME280;26342;42.826;23.992;2022-07-29T05:46:11;95466.00;;;22.23;87.79
40650;BME280;26342;42.826;23.992;2022-07-29T05:48:36;95461.94;;;22.38;86.30
40650;BME280;26342;42.826;23.992;2022-07-29T05:51:02;95467.75;;;22.49;84.45
40650;BME280;26342;42.826;23.992;2022-07-29T05:53:27;95465.13;;;22.61;83.85
40650;BME280;26342;42.826;23.992;2022-07-29T05:55:53;95470.19;;;22.71;84.36
40650;BME280;26342;42.826;23.992;2022-07-29T05:58:19;95462.88;;;22.84;83.29
40650;BME280;26342;42.826;23.992;2022-07-29T06:00:45;95467.16;;;22.94;83.85
40650;BME280;26342;42.826;23.992;2022-07-29T06:03:10;95462.69;;;23.10;81.73
40650;BME280;26342;42.826;23.992;2022-07-29T06:05:36;95464.34;;;23.23;82.01
40650;BME280;26342;42.826;23.992;2022-07-29T06:08:01;95469.38;;;23.46;81.98
40650;BME280;26342;42.826;23.992;2022-07-29T06:10:27;95473.72;;;23.59;80.45
40650;BME280;26342;42.826;23.992;2022-07-29T06:12:52;95474.13;;;23.70;81.60
40650;BME280;26342;42.826;23.992;2022-07-29T06:15:18;95470.19;;;23.79;80.09
40650;BME280;26342;42.826;23.992;2022-07-29T06:17:43;95480.41;;;23.94;77.69
40650;BME280;26342;42.826;23.992;2022-07-29T06:20:09;95481.19;;;24.07;78.44
40650;BME280;26342;42.826;23.992;2022-07-29T06:22:35;95468.72;;;24.18;74.84
40650;BME280;26342;42.826;23.992;2022-07-29T06:25:01;95474.16;;;24.31;75.81
40650;BME280;26342;42.826;23.992;2022-07-29T06:27:27;95480.66;;;24.50;74.60
40650;BME280;26342;42.826;23.992;2022-07-29T06:29:52;95457.91;;;24.59;75.83
40650;BME280;26342;42.826;23.992;2022-07-29T06:32:18;95472.31;;;24.84;75.58
40650;BME280;26342;42.826;23.992;2022-07-29T06:34:44;95469.53;;;24.96;73.60
40650;BME280;26342;42.826;23.992;2022-07-29T06:37:09;95474.63;;;25.10;74.83
40650;BME280;26342;42.826;23.992;2022-07-29T06:39:35;95470.38;;;25.24;73.77
40650;BME280;26342;42.826;23.992;2022-07-29T06:42:04;95464.06;;;25.36;71.04
40650;BME280;26342;42.826;23.992;2022-07-29T06:44:31;95474.91;;;25.48;72.43
40650;BME280;26342;42.826;23.992;2022-07-29T06:46:58;95467.47;;;25.61;70.30
40650;BME280;26342;42.826;23.992;2022-07-29T06:49:23;95456.81;;;25.72;70.71
40650;BME280;26342;42.826;23.992;2022-07-29T06:51:50;95455.44;;;25.78;69.58
40650;BME280;26342;42.826;23.992;2022-07-29T06:54:16;95461.50;;;25.87;68.22
40650;BME280;26342;42.826;23.992;2022-07-29T06:56:42;95456.66;;;25.96;68.36
40650;BME280;26342;42.826;23.992;2022-07-29T06:59:09;95457.00;;;26.10;69.93
40650;BME280;26342;42.826;23.992;2022-07-29T07:01:40;95465.22;;;26.26;69.95
40650;BME280;26342;42.826;23.992;2022-07-29T07:04:06;95454.63;;;26.40;66.35
40650;BME280;26342;42.826;23.992;2022-07-29T07:06:31;95451.28;;;26.47;66.57
40650;BME280;26342;42.826;23.992;2022-07-29T07:08:57;95442.56;;;26.61;66.59
40650;BME280;26342;42.826;23.992;2022-07-29T07:11:22;95451.44;;;26.74;66.60
40650;BME280;26342;42.826;23.992;2022-07-29T07:13:48;95438.97;;;26.76;66.72
40650;BME280;26342;42.826;23.992;2022-07-29T07:16:14;95447.59;;;26.94;66.35
40650;BME280;26342;42.826;23.992;2022-07-29T07:18:39;95453.09;;;27.13;65.90
40650;BME280;26342;42.826;23.992;2022-07-29T07:21:05;95454.09;;;27.24;63.50
40650;BME280;26342;42.826;23.992;2022-07-29T07:23:31;95454.31;;;27.35;65.34
40650;BME280;26342;42.826;23.992;2022-07-29T07:25:56;95452.97;;;27.48;64.93
40650;BME280;26342;42.826;23.992;2022-07-29T07:28:22;95451.66;;;27.62;64.92
40650;BME280;26342;42.826;23.992;2022-07-29T07:30:47;95451.44;;;27.70;63.79
40650;BME280;26342;42.826;23.992;2022-07-29T07:33:13;95449.38;;;27.87;63.53
40650;BME280;26342;42.826;23.992;2022-07-29T07:35:38;95450.84;;;28.03;64.04
40650;BME280;26342;42.826;23.992;2022-07-29T07:38:04;95450.59;;;28.12;64.05
40650;BME280;26342;42.826;23.992;2022-07-29T07:40:31;95458.63;;;28.24;64.29
40650;BME280;26342;42.826;23.992;2022-07-29T07:42:57;95447.81;;;28.31;63.61
40650;BME280;26342;42.826;23.992;2022-07-29T07:45:22;95446.75;;;28.40;63.00
40650;BME280;26342;42.826;23.992;2022-07-29T07:47:48;95451.81;;;28.38;63.26
40650;BME280;26342;42.826;23.992;2022-07-29T07:50:14;95450.38;;;28.47;62.41
40650;BME280;26342;42.826;23.992;2022-07-29T07:52:51;95452.44;;;28.54;63.17
40650;BME280;26342;42.826;23.992;2022-07-29T07:55:17;95456.22;;;28.72;62.89
40650;BME280;26342;42.826;23.992;2022-07-29T07:57:43;95448.41;;;28.74;62.88
40650;BME280;26342;42.826;23.992;2022-07-29T08:00:09;95447.03;;;28.87;62.97
40650;BME280;26342;42.826;23.992;2022-07-29T08:02:35;95448.50;;;29.08;60.51
40650;BME280;26342;42.826;23.992;2022-07-29T08:05:00;95450.63;;;29.22;62.18
40650;BME280;26342;42.826;23.992;2022-07-29T08:07:26;95444.47;;;29.32;60.62
40650;BME280;26342;42.826;23.992;2022-07-29T08:09:51;95448.88;;;29.40;60.54
40650;BME280;26342;42.826;23.992;2022-07-29T08:12:17;95444.50;;;29.35;61.35
40650;BME280;26342;42.826;23.992;2022-07-29T08:14:42;95445.63;;;29.31;60.98
40650;BME280;26342;42.826;23.992;2022-07-29T08:17:08;95450.19;;;29.50;59.25
40650;BME280;26342;42.826;23.992;2022-07-29T08:19:33;95441.97;;;29.53;57.96
40650;BME280;26342;42.826;23.992;2022-07-29T08:21:59;95449.38;;;29.49;62.71
40650;BME280;26342;42.826;23.992;2022-07-29T08:24:24;95446.41;;;29.65;60.66
40650;BME280;26342;42.826;23.992;2022-07-29T08:27:11;95428.13;;;29.83;60.51
40650;BME280;26342;42.826;23.992;2022-07-29T08:29:38;95439.31;;;30.05;59.20
40650;BME280;26342;42.826;23.992;2022-07-29T08:32:05;95437.03;;;30.10;57.29
40650;BME280;26342;42.826;23.992;2022-07-29T08:34:31;95435.22;;;30.28;56.76
40650;BME280;26342;42.826;23.992;2022-07-29T08:36:57;95423.03;;;30.29;54.83
40650;BME280;26342;42.826;23.992;2022-07-29T08:39:23;95431.78;;;30.46;56.74
40650;BME280;26342;42.826;23.992;2022-07-29T08:41:49;95434.28;;;30.65;55.14
40650;BME280;26342;42.826;23.992;2022-07-29T08:44:16;95426.16;;;30.83;53.74
40650;BME280;26342;42.826;23.992;2022-07-29T08:46:42;95429.34;;;30.92;54.52
40650;BME280;26342;42.826;23.992;2022-07-29T08:49:07;95429.41;;;31.10;54.04
40650;BME280;26342;42.826;23.992;2022-07-29T08:51:34;95422.69;;;31.04;54.02
40650;BME280;26342;42.826;23.992;2022-07-29T08:54:01;95425.44;;;31.04;52.94
40650;BME280;26342;42.826;23.992;2022-07-29T08:56:28;95417.53;;;30.95;51.43
40650;BME280;26342;42.826;23.992;2022-07-29T08:58:54;95421.91;;;31.07;51.70
40650;BME280;26342;42.826;23.992;2022-07-29T09:01:25;95424.28;;;31.05;51.28
40650;BME280;26342;42.826;23.992;2022-07-29T09:03:55;95418.06;;;31.22;53.18
40650;BME280;26342;42.826;23.992;2022-07-29T09:06:22;95418.91;;;31.44;51.55
40650;BME280;26342;42.826;23.992;2022-07-29T09:08:51;95409.44;;;31.42;50.28
40650;BME280;26342;42.826;23.992;2022-07-29T09:11:17;95408.28;;;31.43;50.95
40650;BME280;26342;42.826;23.992;2022-07-29T09:13:43;95405.56;;;31.67;51.11
40650;BME280;26342;42.826;23.992;2022-07-29T09:16:08;95402.84;;;31.78;50.54
40650;BME280;26342;42.826;23.992;2022-07-29T09:21:05;95413.91;;;32.00;50.06
40650;BME280;26342;42.826;23.992;2022-07-29T09:26:37;95406.44;;;32.00;49.38
40650;BME280;26342;42.826;23.992;2022-07-29T09:29:16;95403.66;;;32.18;50.22
40650;BME280;26342;42.826;23.992;2022-07-29T09:31:45;95401.28;;;32.41;48.28
40650;BME280;26342;42.826;23.992;2022-07-29T09:34:12;95404.03;;;32.63;48.73
40650;BME280;26342;42.826;23.992;2022-07-29T09:36:45;95405.94;;;32.76;48.37
40650;BME280;26342;42.826;23.992;2022-07-29T09:39:12;95395.28;;;32.82;47.15
40650;BME280;26342;42.826;23.992;2022-07-29T09:41:54;95398.41;;;32.95;44.90
40650;BME280;26342;42.826;23.992;2022-07-29T09:44:20;95402.41;;;32.72;46.04
40650;BME280;26342;42.826;23.992;2022-07-29T09:47:03;95396.47;;;32.88;44.41
40650;BME280;26342;42.826;23.992;2022-07-29T09:49:33;95391.28;;;33.01;44.35
40650;BME280;26342;42.826;23.992;2022-07-29T09:52:08;95384.13;;;33.11;43.46
40650;BME280;26342;42.826;23.992;2022-07-29T09:54:34;95392.00;;;33.19;44.05
40650;BME280;26342;42.826;23.992;2022-07-29T09:57:06;95389.16;;;33.30;46.02
40650;BME280;26342;42.826;23.992;2022-07-29T09:59:32;95395.06;;;33.36;45.53
40650;BME280;26342;42.826;23.992;2022-07-29T10:01:58;95390.28;;;33.50;44.95
40650;BME280;26342;42.826;23.992;2022-07-29T10:04:38;95389.50;;;33.46;45.48
40650;BME280;26342;42.826;23.992;2022-07-29T10:07:04;95389.94;;;33.34;41.84
40650;BME280;26342;42.826;23.992;2022-07-29T10:09:31;95386.41;;;33.37;44.47
40650;BME280;26342;42.826;23.992;2022-07-29T10:12:04;95382.34;;;33.52;43.47
40650;BME280;26342;42.826;23.992;2022-07-29T10:14:34;95385.13;;;33.52;45.33
40650;BME280;26342;42.826;23.992;2022-07-29T10:17:01;95368.66;;;33.24;46.33
40650;BME280;26342;42.826;23.992;2022-07-29T10:19:29;95379.25;;;33.43;44.25
40650;BME280;26342;42.826;23.992;2022-07-29T10:21:57;95380.00;;;33.51;45.51
40650;BME280;26342;42.826;23.992;2022-07-29T10:24:25;95360.09;;;33.70;43.05
40650;BME280;26342;42.826;23.992;2022-07-29T10:26:52;95363.19;;;33.79;44.54
40650;BME280;26342;42.826;23.992;2022-07-29T10:29:18;95372.28;;;33.80;42.52
40650;BME280;26342;42.826;23.992;2022-07-29T10:31:53;95373.31;;;33.45;42.83
40650;BME280;26342;42.826;23.992;2022-07-29T10:34:51;95365.63;;;33.74;45.69
40650;BME280;26342;42.826;23.992;2022-07-29T10:37:33;95356.34;;;33.98;43.30
40650;BME280;26342;42.826;23.992;2022-07-29T10:42:55;95349.94;;;34.08;41.53
40650;BME280;26342;42.826;23.992;2022-07-29T10:45:26;95347.91;;;34.12;40.05
40650;BME280;26342;42.826;23.992;2022-07-29T10:48:03;95348.19;;;34.25;40.91
40650;BME280;26342;42.826;23.992;2022-07-29T10:53:22;95334.31;;;33.80;40.68
40650;BME280;26342;42.826;23.992;2022-07-29T10:55:48;95335.88;;;33.85;43.70
40650;BME280;26342;42.826;23.992;2022-07-29T10:58:20;95337.72;;;34.02;43.09
40650;BME280;26342;42.826;23.992;2022-07-29T11:00:47;95335.25;;;34.15;43.95
40650;BME280;26342;42.826;23.992;2022-07-29T11:06:13;95329.19;;;33.79;41.34
40650;BME280;26342;42.826;23.992;2022-07-29T11:08:39;95337.78;;;33.36;42.47
40650;BME280;26342;42.826;23.992;2022-07-29T11:16:16;95338.69;;;33.19;41.54
40650;BME280;26342;42.826;23.992;2022-07-29T11:21:39;95324.63;;;32.81;42.36
40650;BME280;26342;42.826;23.992;2022-07-29T11:24:17;95330.50;;;32.94;41.78
40650;BME280;26342;42.826;23.992;2022-07-29T11:26:43;95318.91;;;33.20;42.07
40650;BME280;26342;42.826;23.992;2022-07-29T11:29:21;95321.91;;;33.51;40.62
40650;BME280;26342;42.826;23.992;2022-07-29T11:31:51;95317.84;;;33.66;41.13
40650;BME280;26342;42.826;23.992;2022-07-29T11:34:32;95312.22;;;33.77;41.13
40650;BME280;26342;42.826;23.992;2022-07-29T11:45:10;95318.16;;;33.13;43.08
40650;BME280;26342;42.826;23.992;2022-07-29T11:50:16;95312.25;;;33.70;41.46
40650;BME280;26342;42.826;23.992;2022-07-29T11:52:46;95310.81;;;33.54;39.74
40650;BME280;26342;42.826;23.992;2022-07-29T11:55:15;95320.09;;;33.19;41.57
40650;BME280;26342;42.826;23.992;2022-07-29T11:57:49;95316.72;;;32.87;44.02
40650;BME280;26342;42.826;23.992;2022-07-29T12:02:56;95312.88;;;32.52;44.35
40650;BME280;26342;42.826;23.992;2022-07-29T12:05:42;95308.56;;;32.47;44.42
40650;BME280;26342;42.826;23.992;2022-07-29T12:08:18;95315.97;;;32.68;43.81
40650;BME280;26342;42.826;23.992;2022-07-29T12:10:46;95310.81;;;32.74;43.85
40650;BME280;26342;42.826;23.992;2022-07-29T12:13:13;95300.97;;;32.73;43.89
40650;BME280;26342;42.826;23.992;2022-07-29T12:15:39;95306.88;;;32.78;43.77
40650;BME280;26342;42.826;23.992;2022-07-29T12:18:18;95309.63;;;32.78;44.08
40650;BME280;26342;42.826;23.992;2022-07-29T12:20:44;95315.94;;;32.79;44.39
40650;BME280;26342;42.826;23.992;2022-07-29T12:23:10;95310.34;;;32.93;45.36
40650;BME280;26342;42.826;23.992;2022-07-29T12:25:40;95299.25;;;33.00;43.63
40650;BME280;26342;42.826;23.992;2022-07-29T12:28:11;95299.19;;;33.18;49.70
40650;BME280;26342;42.826;23.992;2022-07-29T12:30:40;95295.25;;;33.12;43.55
40650;BME280;26342;42.826;23.992;2022-07-29T12:33:18;95301.69;;;32.95;44.29
40650;BME280;26342;42.826;23.992;2022-07-29T12:35:49;95304.00;;;33.03;43.94
40650;BME280;26342;42.826;23.992;2022-07-29T12:38:16;95294.53;;;33.01;45.87
40650;BME280;26342;42.826;23.992;2022-07-29T12:40:43;95302.47;;;32.92;45.32
40650;BME280;26342;42.826;23.992;2022-07-29T12:43:15;95301.25;;;33.00;44.20
40650;BME280;26342;42.826;23.992;2022-07-29T12:45:44;95291.88;;;32.80;44.05
40650;BME280;26342;42.826;23.992;2022-07-29T12:48:11;95295.50;;;32.59;46.53
40650;BME280;26342;42.826;23.992;2022-07-29T12:50:59;95293.56;;;32.45;44.85
40650;BME280;26342;42.826;23.992;2022-07-29T12:53:24;95290.44;;;32.21;48.21
40650;BME280;26342;42.826;23.992;2022-07-29T12:55:51;95291.31;;;31.83;50.35
40650;BME280;26342;42.826;23.992;2022-07-29T13:01:13;95296.00;;;31.25;58.72
40650;BME280;26342;42.826;23.992;2022-07-29T13:03:48;95290.84;;;31.13;64.44
40650;BME280;26342;42.826;23.992;2022-07-29T13:09:06;95298.97;;;30.67;63.13
40650;BME280;26342;42.826;23.992;2022-07-29T13:13:57;95319.38;;;30.00;65.21
40650;BME280;26342;42.826;23.992;2022-07-29T13:16:23;95326.50;;;29.53;66.01
40650;BME280;26342;42.826;23.992;2022-07-29T13:19:09;95336.09;;;28.92;74.60
40650;BME280;26342;42.826;23.992;2022-07-29T13:21:35;95331.66;;;28.27;78.60
40650;BME280;26342;42.826;23.992;2022-07-29T13:24:01;95352.38;;;27.72;77.14
40650;BME280;26342;42.826;23.992;2022-07-29T13:26:26;95365.53;;;27.40;84.48
40650;BME280;26342;42.826;23.992;2022-07-29T13:28:53;95361.53;;;27.34;83.61
40650;BME280;26342;42.826;23.992;2022-07-29T13:31:18;95358.38;;;26.93;79.38
40650;BME280;26342;42.826;23.992;2022-07-29T13:33:44;95354.78;;;26.69;81.11
40650;BME280;26342;42.826;23.992;2022-07-29T13:36:09;95358.78;;;26.21;84.61
40650;BME280;26342;42.826;23.992;2022-07-29T13:38:34;95338.44;;;25.83;81.25
40650;BME280;26342;42.826;23.992;2022-07-29T13:41:00;95338.53;;;25.71;83.66
40650;BME280;26342;42.826;23.992;2022-07-29T13:43:26;95326.59;;;25.64;83.14
40650;BME280;26342;42.826;23.992;2022-07-29T13:45:51;95318.34;;;25.00;89.77
40650;BME280;26342;42.826;23.992;2022-07-29T13:48:17;95332.41;;;24.18;93.12
40650;BME280;26342;42.826;23.992;2022-07-29T13:50:42;95323.47;;;23.57;100.00
40650;BME280;26342;42.826;23.992;2022-07-29T13:53:08;95330.66;;;23.86;100.00